createdAt,value
2018-10-19T00:00:34.691Z,22.50
2018-10-19T00:01:34.672Z,24.70
2018-10-19T00:02:34.725Z,23.40
2018-10-19T00:03:34.655Z,25.40
2018-10-19T00:04:35.517Z,22.60
2018-10-19T00:05:34.630Z,23.80
2018-10-19T00:06:34.620Z,23.60
2018-10-19T00:07:34.675Z,22.50
2018-10-19T00:08:34.597Z,25.40
2018-10-19T00:09:42.667Z,23.90
2018-10-19T00:10:34.576Z,21.90
2018-10-19T00:11:34.564Z,22.00
2018-10-19T00:12:34.660Z,22.10
2018-10-19T00:13:34.545Z,22.70
2018-10-19T00:14:34.545Z,22.30
2018-10-19T00:15:34.528Z,24.30
2018-10-19T00:16:34.512Z,24.10
2018-10-19T00:17:34.562Z,21.80
2018-10-19T00:18:34.493Z,23.10
2018-10-19T00:19:34.481Z,20.80
2018-10-19T00:20:35.027Z,23.80
2018-10-19T00:21:34.470Z,25.40
2018-10-19T00:22:34.511Z,24.20
2018-10-19T00:23:34.443Z,21.80
2018-10-19T00:24:34.431Z,23.70
2018-10-19T00:25:35.025Z,22.70
2018-10-19T00:26:34.410Z,23.90
2018-10-19T00:27:34.457Z,23.90
2018-10-19T00:28:34.388Z,24.70
2018-10-19T00:29:34.379Z,25.20
2018-10-19T00:30:34.368Z,24.90
2018-10-19T00:31:34.377Z,24.90
2018-10-19T00:32:34.413Z,27.20
2018-10-19T00:33:34.335Z,27.20
2018-10-19T00:34:34.324Z,27.10
2018-10-19T00:35:34.315Z,27.20
2018-10-19T00:36:34.324Z,26.20
2018-10-19T00:37:34.367Z,25.90
2018-10-19T00:38:34.282Z,24.90
2018-10-19T00:39:34.277Z,25.10
2018-10-19T00:40:34.257Z,23.70
2018-10-19T00:41:34.248Z,27.00
2018-10-19T00:42:34.301Z,27.50
2018-10-19T00:43:34.231Z,26.80
2018-10-19T00:44:34.221Z,25.40
2018-10-19T00:45:34.220Z,25.50
2018-10-19T00:46:35.027Z,23.60
2018-10-19T00:47:34.248Z,24.10
2018-10-19T00:48:34.181Z,22.50
2018-10-19T00:49:34.171Z,22.40
2018-10-19T00:50:34.157Z,25.10
2018-10-19T00:51:34.144Z,24.80
2018-10-19T00:52:34.228Z,25.10
2018-10-19T00:53:34.137Z,25.70
2018-10-19T00:54:34.118Z,27.30
2018-10-19T00:55:34.165Z,25.90
2018-10-19T00:56:34.090Z,25.20
2018-10-19T00:57:34.091Z,25.40
2018-10-19T00:58:34.138Z,24.10
2018-10-19T00:59:34.066Z,24.30
2018-10-19T01:00:34.049Z,22.80
2018-10-19T01:01:34.044Z,23.30
2018-10-19T01:02:34.030Z,22.50
2018-10-19T01:03:34.080Z,23.20
2018-10-19T01:04:34.009Z,21.10
2018-10-19T01:05:34.007Z,20.40
2018-10-19T01:06:33.985Z,23.60
2018-10-19T01:07:34.519Z,25.40
2018-10-19T01:08:34.029Z,21.40
2018-10-19T01:09:33.957Z,22.90
2018-10-19T01:10:33.943Z,25.00
2018-10-19T01:11:33.933Z,24.30
2018-10-19T01:12:33.921Z,21.90
2018-10-19T01:13:33.979Z,22.40
2018-10-19T01:14:33.903Z,22.80
2018-10-19T01:15:33.899Z,22.30
2018-10-19T01:16:33.880Z,22.60
2018-10-19T01:17:33.903Z,23.60
2018-10-19T01:18:33.927Z,22.00
2018-10-19T01:19:33.846Z,26.50
2018-10-19T01:20:33.838Z,24.10
2018-10-19T01:21:33.835Z,24.70
2018-10-19T01:22:33.828Z,23.90
2018-10-19T01:23:33.872Z,23.30
2018-10-19T01:24:33.797Z,22.40
2018-10-19T01:25:33.788Z,21.50
2018-10-19T01:26:33.775Z,22.60
2018-10-19T01:27:33.780Z,21.60
2018-10-19T01:28:34.099Z,21.30
2018-10-19T01:29:33.765Z,22.60
2018-10-19T01:30:33.733Z,23.70
2018-10-19T01:31:33.722Z,22.00
2018-10-19T01:32:33.713Z,20.70
2018-10-19T01:33:33.762Z,21.00
2018-10-19T01:34:33.692Z,22.60
2018-10-19T01:35:33.700Z,24.60
2018-10-19T01:36:33.669Z,23.50
2018-10-19T01:37:33.655Z,24.40
2018-10-19T01:38:33.710Z,24.90
2018-10-19T01:39:33.640Z,25.00
2018-10-19T01:40:33.623Z,24.20
2018-10-19T01:41:33.616Z,24.50
2018-10-19T01:42:33.608Z,24.40
2018-10-19T01:43:33.655Z,23.00
2018-10-19T01:44:33.586Z,25.40
2018-10-19T01:45:33.572Z,24.60
2018-10-19T01:46:33.580Z,24.40
2018-10-19T01:47:33.553Z,22.70
2018-10-19T01:48:33.610Z,22.30
2018-10-19T01:49:34.520Z,21.90
2018-10-19T01:50:33.522Z,23.30
2018-10-19T01:51:33.517Z,22.10
2018-10-19T01:52:33.498Z,23.10
2018-10-19T01:53:33.548Z,22.70
2018-10-19T01:54:33.485Z,22.70
2018-10-19T01:55:33.464Z,22.60
2018-10-19T01:56:33.456Z,22.90
2018-10-19T01:57:33.452Z,22.90
2018-10-19T01:58:33.515Z,26.10
2018-10-19T01:59:33.425Z,26.30
2018-10-19T02:00:33.417Z,31.10
2018-10-19T02:01:33.403Z,30.70
2018-10-19T02:02:33.397Z,34.90
2018-10-19T02:03:33.384Z,33.00
2018-10-19T02:04:33.431Z,28.90
2018-10-19T02:05:33.369Z,26.70
2018-10-19T02:06:33.347Z,31.40
2018-10-19T02:07:33.337Z,31.70
2018-10-19T02:08:33.328Z,27.90
2018-10-19T02:09:33.378Z,29.60
2018-10-19T02:10:34.017Z,29.40
2018-10-19T02:11:33.299Z,25.50
2018-10-19T02:12:33.287Z,27.50
2018-10-19T02:13:33.286Z,26.80
2018-10-19T02:14:33.323Z,27.40
2018-10-19T02:15:33.251Z,30.10
2018-10-19T02:16:33.245Z,28.80
2018-10-19T02:17:33.238Z,28.80
2018-10-19T02:18:33.229Z,28.30
2018-10-19T02:19:33.273Z,30.30
2018-10-19T02:20:33.201Z,27.50
2018-10-19T02:21:34.010Z,26.80
2018-10-19T02:22:33.185Z,24.70
2018-10-19T02:23:33.168Z,27.10
2018-10-19T02:24:33.234Z,28.60
2018-10-19T02:25:33.149Z,27.30
2018-10-19T02:26:33.138Z,26.30
2018-10-19T02:27:33.130Z,25.10
2018-10-19T02:28:33.118Z,25.30
2018-10-19T02:29:33.171Z,27.40
2018-10-19T02:30:33.115Z,27.10
2018-10-19T02:31:34.008Z,25.50
2018-10-19T02:32:33.074Z,27.00
2018-10-19T02:33:33.064Z,28.70
2018-10-19T02:34:33.141Z,30.90
2018-10-19T02:35:33.041Z,32.20
2018-10-19T02:36:33.043Z,28.70
2018-10-19T02:37:33.027Z,28.60
2018-10-19T02:38:33.014Z,27.90
2018-10-19T02:39:33.060Z,26.50
2018-10-19T02:40:32.988Z,25.00
2018-10-19T02:41:32.975Z,25.60
2018-10-19T02:42:32.964Z,26.60
2018-10-19T02:43:32.955Z,25.60
2018-10-19T02:44:33.005Z,27.70
2018-10-19T02:45:32.940Z,27.30
2018-10-19T02:46:32.928Z,27.80
2018-10-19T02:47:32.914Z,26.40
2018-10-19T02:48:32.910Z,25.50
2018-10-19T02:49:32.963Z,24.60
2018-10-19T02:50:32.881Z,25.60
2018-10-19T02:51:32.872Z,24.00
2018-10-19T02:52:33.505Z,25.30
2018-10-19T02:53:32.850Z,25.10
2018-10-19T02:54:32.897Z,23.70
2018-10-19T02:55:32.831Z,23.70
2018-10-19T02:56:32.815Z,25.70
2018-10-19T02:57:32.807Z,24.50
2018-10-19T02:58:32.797Z,24.90
2018-10-19T02:59:32.849Z,24.40
2018-10-19T03:00:32.803Z,26.60
2018-10-19T03:01:32.773Z,23.70
2018-10-19T03:02:32.755Z,25.60
2018-10-19T03:03:32.740Z,28.20
2018-10-19T03:04:32.822Z,27.30
2018-10-19T03:05:32.721Z,26.70
2018-10-19T03:06:32.712Z,25.00
2018-10-19T03:07:32.701Z,23.90
2018-10-19T03:08:32.695Z,23.90
2018-10-19T03:09:32.745Z,27.10
2018-10-19T03:10:32.671Z,26.50
2018-10-19T03:11:32.725Z,27.30
2018-10-19T03:12:32.656Z,30.10
2018-10-19T03:13:33.499Z,31.60
2018-10-19T03:14:32.636Z,27.60
2018-10-19T03:15:32.683Z,29.20
2018-10-19T03:16:32.607Z,30.30
2018-10-19T03:17:32.596Z,28.70
2018-10-19T03:18:32.585Z,25.90
2018-10-19T03:19:32.579Z,28.50
2018-10-19T03:20:32.626Z,26.70
2018-10-19T03:21:32.557Z,33.10
2018-10-19T03:22:32.548Z,33.20
2018-10-19T03:23:32.535Z,32.20
2018-10-19T03:24:32.522Z,36.10
2018-10-19T03:25:32.573Z,42.40
2018-10-19T03:26:32.499Z,39.20
2018-10-19T03:27:32.495Z,28.20
2018-10-19T03:28:32.477Z,39.80
2018-10-19T03:29:32.471Z,33.50
2018-10-19T03:30:32.529Z,34.20
2018-10-19T03:31:32.449Z,38.40
2018-10-19T03:32:32.469Z,32.10
2018-10-19T03:33:32.425Z,47.00
2018-10-19T03:34:37.000Z,38.60
2018-10-19T03:35:32.464Z,37.30
2018-10-19T03:36:32.390Z,37.90
2018-10-19T03:37:32.382Z,35.30
2018-10-19T03:38:32.402Z,40.90
2018-10-19T03:39:32.365Z,35.30
2018-10-19T03:40:32.420Z,39.00
2018-10-19T03:41:32.338Z,46.00
2018-10-19T03:42:32.332Z,34.90
2018-10-19T03:43:32.322Z,44.10
2018-10-19T03:44:32.309Z,38.00
2018-10-19T03:45:32.362Z,48.80
2018-10-19T03:46:32.290Z,58.00
2018-10-19T03:47:32.274Z,57.80
2018-10-19T03:48:32.266Z,57.70
2018-10-19T03:49:32.254Z,65.50
2018-10-19T03:50:32.309Z,53.20
2018-10-19T03:51:32.233Z,47.80
2018-10-19T03:52:32.227Z,41.50
2018-10-19T03:53:32.218Z,48.30
2018-10-19T03:54:32.202Z,65.30
2018-10-19T03:55:32.567Z,50.00
2018-10-19T03:56:32.180Z,48.90
2018-10-19T03:57:32.172Z,49.60
2018-10-19T03:58:32.158Z,41.80
2018-10-19T03:59:32.149Z,46.60
2018-10-19T04:00:32.205Z,68.50
2018-10-19T04:01:32.170Z,57.30
2018-10-19T04:02:32.129Z,52.30
2018-10-19T04:03:32.159Z,56.70
2018-10-19T04:04:32.097Z,52.20
2018-10-19T04:05:32.199Z,51.40
2018-10-19T04:06:32.080Z,62.90
2018-10-19T04:07:32.064Z,62.20
2018-10-19T04:08:32.056Z,54.30
2018-10-19T04:09:32.049Z,63.30
2018-10-19T04:10:32.115Z,67.90
2018-10-19T04:11:32.034Z,44.30
2018-10-19T04:12:32.028Z,51.00
2018-10-19T04:13:32.003Z,47.00
2018-10-19T04:14:31.993Z,43.10
2018-10-19T04:15:32.044Z,43.30
2018-10-19T04:16:32.500Z,43.70
2018-10-19T04:17:31.962Z,41.50
2018-10-19T04:18:31.947Z,44.80
2018-10-19T04:19:31.949Z,50.60
2018-10-19T04:20:31.986Z,55.40
2018-10-19T04:21:31.917Z,36.40
2018-10-19T04:22:32.495Z,40.20
2018-10-19T04:23:31.897Z,43.50
2018-10-19T04:24:31.892Z,37.20
2018-10-19T04:25:31.947Z,45.70
2018-10-19T04:26:31.859Z,37.10
2018-10-19T04:27:31.891Z,39.20
2018-10-19T04:28:31.843Z,43.90
2018-10-19T04:29:31.831Z,40.30
2018-10-19T04:30:31.834Z,38.70
2018-10-19T04:31:31.880Z,40.20
2018-10-19T04:32:31.803Z,35.20
2018-10-19T04:33:31.788Z,37.80
2018-10-19T04:34:31.803Z,37.40
2018-10-19T04:35:31.768Z,39.20
2018-10-19T04:36:31.820Z,36.60
2018-10-19T04:37:32.493Z,33.30
2018-10-19T04:38:31.760Z,36.90
2018-10-19T04:39:31.726Z,32.00
2018-10-19T04:40:31.715Z,27.90
2018-10-19T04:41:31.857Z,33.50
2018-10-19T04:42:31.697Z,29.50
2018-10-19T04:43:31.684Z,31.40
2018-10-19T04:44:31.673Z,30.50
2018-10-19T04:45:31.667Z,30.70
2018-10-19T04:46:31.724Z,28.40
2018-10-19T04:47:31.656Z,30.80
2018-10-19T04:48:31.638Z,29.20
2018-10-19T04:49:31.618Z,33.90
2018-10-19T04:50:31.607Z,30.40
2018-10-19T04:51:31.664Z,31.00
2018-10-19T04:52:31.596Z,30.50
2018-10-19T04:53:31.632Z,30.70
2018-10-19T04:54:31.569Z,32.00
2018-10-19T04:55:31.552Z,25.40
2018-10-19T04:56:31.604Z,28.90
2018-10-19T04:57:31.535Z,27.20
2018-10-19T04:58:32.488Z,24.70
2018-10-19T04:59:31.515Z,27.50
2018-10-19T05:00:31.502Z,28.10
2018-10-19T05:01:31.554Z,29.80
2018-10-19T05:02:31.496Z,29.70
2018-10-19T05:03:31.477Z,30.20
2018-10-19T05:04:31.502Z,31.70
2018-10-19T05:05:31.515Z,28.60
2018-10-19T05:06:31.596Z,31.50
2018-10-19T05:07:31.428Z,33.00
2018-10-19T05:08:31.427Z,33.20
2018-10-19T05:09:31.409Z,30.60
2018-10-19T05:10:31.402Z,36.20
2018-10-19T05:11:31.447Z,33.90
2018-10-19T05:12:31.454Z,31.50
2018-10-19T05:13:31.366Z,33.00
2018-10-19T05:14:31.359Z,34.00
2018-10-19T05:15:31.342Z,34.00
2018-10-19T05:16:31.397Z,34.50
2018-10-19T05:17:31.324Z,35.90
2018-10-19T05:18:31.316Z,35.10
2018-10-19T05:19:31.987Z,37.40
2018-10-19T05:20:31.292Z,40.20
2018-10-19T05:21:31.337Z,44.20
2018-10-19T05:22:31.270Z,41.40
2018-10-19T05:23:31.261Z,41.50
2018-10-19T05:24:31.288Z,43.70
2018-10-19T05:25:31.253Z,41.40
2018-10-19T05:26:31.289Z,40.00
2018-10-19T05:27:31.214Z,35.70
2018-10-19T05:28:31.211Z,32.90
2018-10-19T05:29:31.197Z,38.10
2018-10-19T05:30:31.195Z,42.20
2018-10-19T05:31:31.236Z,31.80
2018-10-19T05:32:31.171Z,29.20
2018-10-19T05:33:31.151Z,34.40
2018-10-19T05:34:31.140Z,35.40
2018-10-19T05:35:31.129Z,34.20
2018-10-19T05:36:31.197Z,35.20
2018-10-19T05:37:31.114Z,40.50
2018-10-19T05:38:31.101Z,45.90
2018-10-19T05:39:31.085Z,41.00
2018-10-19T05:40:31.556Z,32.70
2018-10-19T05:41:31.126Z,36.50
2018-10-19T05:42:31.117Z,37.00
2018-10-19T05:43:31.059Z,31.60
2018-10-19T05:44:31.035Z,49.30
2018-10-19T05:45:31.021Z,34.60
2018-10-19T05:46:31.012Z,42.00
2018-10-19T05:47:31.067Z,42.50
2018-10-19T05:48:30.989Z,44.90
2018-10-19T05:49:30.982Z,36.80
2018-10-19T05:50:30.968Z,36.60
2018-10-19T05:51:30.959Z,37.20
2018-10-19T05:52:31.009Z,43.40
2018-10-19T05:53:30.950Z,40.70
2018-10-19T05:54:30.929Z,39.00
2018-10-19T05:55:30.915Z,39.60
2018-10-19T05:56:30.907Z,42.70
2018-10-19T05:57:30.954Z,45.20
2018-10-19T05:58:30.884Z,45.40
2018-10-19T05:59:30.871Z,44.00
2018-10-19T06:00:30.867Z,44.10
2018-10-19T06:01:31.477Z,43.00
2018-10-19T06:02:30.971Z,37.90
2018-10-19T06:03:30.834Z,35.90
2018-10-19T06:04:30.823Z,35.60
2018-10-19T06:05:30.826Z,34.70
2018-10-19T06:06:30.798Z,37.30
2018-10-19T06:07:30.849Z,41.10
2018-10-19T06:08:30.780Z,36.00
2018-10-19T06:09:30.768Z,39.90
2018-10-19T06:10:30.760Z,32.70
2018-10-19T06:11:30.748Z,43.20
2018-10-19T06:12:30.803Z,36.40
2018-10-19T06:13:30.741Z,37.90
2018-10-19T06:14:30.713Z,34.80
2018-10-19T06:15:30.701Z,36.90
2018-10-19T06:16:30.701Z,41.20
2018-10-19T06:17:30.743Z,35.10
2018-10-19T06:18:30.679Z,37.20
2018-10-19T06:19:30.660Z,37.00
2018-10-19T06:20:30.652Z,38.60
2018-10-19T06:21:30.638Z,36.80
2018-10-19T06:22:31.046Z,34.60
2018-10-19T06:23:30.616Z,37.00
2018-10-19T06:24:30.610Z,37.20
2018-10-19T06:25:30.596Z,36.70
2018-10-19T06:26:30.683Z,39.20
2018-10-19T06:27:30.646Z,32.70
2018-10-19T06:28:30.568Z,34.70
2018-10-19T06:29:30.555Z,34.70
2018-10-19T06:30:30.549Z,33.50
2018-10-19T06:31:30.532Z,34.20
2018-10-19T06:32:30.585Z,35.70
2018-10-19T06:33:30.528Z,35.30
2018-10-19T06:34:30.513Z,33.40
2018-10-19T06:35:30.491Z,31.10
2018-10-19T06:36:30.507Z,32.40
2018-10-19T06:37:30.532Z,34.00
2018-10-19T06:38:30.458Z,31.90
2018-10-19T06:39:30.457Z,34.20
2018-10-19T06:40:30.457Z,32.10
2018-10-19T06:41:30.430Z,31.50
2018-10-19T06:42:30.493Z,32.80
2018-10-19T06:43:31.990Z,33.30
2018-10-19T06:44:30.416Z,34.40
2018-10-19T06:45:30.388Z,32.20
2018-10-19T06:46:30.443Z,32.30
2018-10-19T06:47:30.446Z,36.00
2018-10-19T06:48:30.356Z,34.50
2018-10-19T06:49:30.347Z,32.70
2018-10-19T06:50:30.339Z,33.20
2018-10-19T06:51:30.322Z,37.40
2018-10-19T06:52:30.391Z,35.90
2018-10-19T06:53:30.301Z,35.00
2018-10-19T06:54:30.295Z,34.50
2018-10-19T06:55:30.281Z,34.90
2018-10-19T06:56:30.301Z,35.50
2018-10-19T06:57:30.286Z,33.70
2018-10-19T06:58:30.321Z,35.50
2018-10-19T06:59:30.326Z,36.00
2018-10-19T07:00:30.233Z,36.70
2018-10-19T07:01:30.219Z,35.80
2018-10-19T07:02:30.207Z,36.00
2018-10-19T07:03:30.264Z,33.70
2018-10-19T07:04:30.968Z,36.20
2018-10-19T07:05:30.189Z,35.50
2018-10-19T07:06:30.165Z,35.40
2018-10-19T07:07:30.154Z,34.20
2018-10-19T07:08:30.296Z,35.50
2018-10-19T07:09:30.135Z,37.70
2018-10-19T07:10:30.123Z,36.60
2018-10-19T07:11:30.112Z,37.60
2018-10-19T07:12:30.103Z,35.60
2018-10-19T07:13:30.153Z,35.70
2018-10-19T07:14:30.082Z,36.50
2018-10-19T07:15:30.068Z,38.20
2018-10-19T07:16:37.580Z,34.60
2018-10-19T07:17:38.671Z,36.20
2018-10-19T07:18:38.753Z,36.40
2018-10-19T07:21:06.963Z,39.10
2018-10-19T07:22:06.895Z,40.90
2018-10-19T07:23:06.953Z,37.90
2018-10-19T07:24:06.868Z,37.80
2018-10-19T07:25:06.855Z,37.60
2018-10-19T07:26:06.897Z,37.60
2018-10-19T07:27:06.832Z,37.40
2018-10-19T07:28:06.821Z,34.80
2018-10-19T07:29:06.937Z,34.60
2018-10-19T07:30:06.800Z,35.60
2018-10-19T07:31:06.791Z,39.00
2018-10-19T07:32:06.829Z,34.40
2018-10-19T07:33:06.772Z,39.60
2018-10-19T07:34:06.827Z,36.70
2018-10-19T07:35:06.811Z,38.80
2018-10-19T07:36:06.738Z,38.50
2018-10-19T07:37:07.624Z,38.00
2018-10-19T07:38:06.749Z,37.40
2018-10-19T07:39:06.780Z,36.60
2018-10-19T07:40:06.694Z,38.80
2018-10-19T07:41:06.930Z,44.10
2018-10-19T07:42:06.744Z,42.10
2018-10-19T07:43:06.658Z,40.40
2018-10-19T07:44:06.776Z,44.30
2018-10-19T07:45:06.638Z,42.00
2018-10-19T07:46:06.633Z,43.60
2018-10-19T07:47:06.658Z,40.50
2018-10-19T07:48:06.773Z,39.50
2018-10-19T07:49:06.675Z,36.70
2018-10-19T07:50:06.643Z,39.10
2018-10-19T07:51:06.577Z,37.90
2018-10-19T07:52:06.571Z,38.60
2018-10-19T07:53:06.632Z,42.60
2018-10-19T07:54:06.690Z,45.50
2018-10-19T07:55:06.537Z,48.00
2018-10-19T07:56:06.607Z,38.30
2018-10-19T07:57:06.511Z,46.90
2018-10-19T07:58:07.074Z,38.70
2018-10-19T07:59:06.588Z,35.40
2018-10-19T08:00:06.582Z,36.00
2018-10-19T08:01:06.491Z,41.70
2018-10-19T08:02:06.522Z,43.50
2018-10-19T08:03:06.450Z,44.10
2018-10-19T08:04:06.442Z,44.80
2018-10-19T08:05:06.518Z,43.30
2018-10-19T08:06:06.420Z,40.20
2018-10-19T08:07:06.411Z,35.60
2018-10-19T08:08:06.399Z,38.10
2018-10-19T08:09:06.386Z,46.80
2018-10-19T08:10:06.439Z,39.60
2018-10-19T08:11:06.415Z,44.70
2018-10-19T08:12:06.353Z,39.30
2018-10-19T08:13:06.342Z,38.70
2018-10-19T08:14:06.385Z,45.20
2018-10-19T08:15:06.381Z,47.90
2018-10-19T08:16:06.322Z,47.30
2018-10-19T08:17:06.374Z,46.60
2018-10-19T08:18:06.297Z,49.00
2018-10-19T08:19:07.071Z,47.00
2018-10-19T08:20:06.403Z,45.50
2018-10-19T08:21:06.319Z,44.90
2018-10-19T08:22:06.245Z,43.20
2018-10-19T08:23:06.297Z,45.40
2018-10-19T08:24:06.228Z,44.30
2018-10-19T08:25:06.217Z,43.70
2018-10-19T08:26:06.334Z,43.30
2018-10-19T08:27:06.240Z,42.50
2018-10-19T08:28:06.184Z,40.00
2018-10-19T08:29:06.209Z,41.50
2018-10-19T08:30:06.162Z,37.80
2018-10-19T08:31:06.219Z,39.10
2018-10-19T08:32:06.255Z,40.20
2018-10-19T08:33:06.129Z,35.70
2018-10-19T08:34:06.118Z,32.20
2018-10-19T08:35:06.156Z,37.10
2018-10-19T08:36:06.165Z,35.00
2018-10-19T08:37:06.087Z,35.60
2018-10-19T08:38:06.081Z,36.30
2018-10-19T08:39:06.067Z,35.90
2018-10-19T08:40:06.571Z,36.30
2018-10-19T08:41:06.134Z,34.00
2018-10-19T08:42:06.035Z,33.90
2018-10-19T08:43:06.071Z,32.70
2018-10-19T08:44:06.015Z,30.70
2018-10-19T08:45:06.055Z,31.90
2018-10-19T08:46:06.059Z,27.80
2018-10-19T08:47:06.040Z,32.40
2018-10-19T08:48:05.971Z,30.80
2018-10-19T08:49:05.982Z,27.40
2018-10-19T08:50:05.952Z,29.60
2018-10-19T08:51:06.057Z,31.20
2018-10-19T08:52:05.930Z,26.80
2018-10-19T08:53:05.994Z,29.60
2018-10-19T08:54:05.905Z,29.20
2018-10-19T08:55:05.971Z,29.60
2018-10-19T08:56:05.944Z,28.00
2018-10-19T08:57:05.909Z,29.70
2018-10-19T08:58:05.903Z,28.70
2018-10-19T08:59:05.987Z,27.60
2018-10-19T09:00:05.870Z,25.70
2018-10-19T09:01:06.138Z,26.00
2018-10-19T09:02:05.819Z,22.50
2018-10-19T09:03:05.862Z,23.10
2018-10-19T09:04:05.832Z,22.60
2018-10-19T09:05:05.828Z,21.00
2018-10-19T09:06:05.850Z,22.20
2018-10-19T09:07:05.768Z,20.60
2018-10-19T09:08:05.756Z,21.30
2018-10-19T09:09:05.797Z,22.30
2018-10-19T09:10:05.733Z,20.70
2018-10-19T09:11:05.792Z,19.60
2018-10-19T09:12:05.711Z,19.90
2018-10-19T09:13:05.702Z,19.30
2018-10-19T09:14:05.692Z,20.30
2018-10-19T09:15:05.687Z,20.10
2018-10-19T09:16:05.743Z,20.60
2018-10-19T09:17:05.736Z,20.70
2018-10-19T09:18:05.652Z,20.30
2018-10-19T09:19:05.639Z,20.00
2018-10-19T09:20:05.634Z,21.10
2018-10-19T09:21:05.676Z,22.80
2018-10-19T09:22:06.147Z,21.10
2018-10-19T09:23:05.621Z,21.20
2018-10-19T09:24:05.583Z,21.20
2018-10-19T09:25:05.579Z,22.70
2018-10-19T09:26:05.564Z,23.00
2018-10-19T09:27:05.642Z,21.30
2018-10-19T09:28:05.543Z,22.30
2018-10-19T09:29:05.570Z,22.30
2018-10-19T09:30:05.520Z,19.30
2018-10-19T09:31:05.512Z,20.10
2018-10-19T09:32:05.562Z,20.40
2018-10-19T09:33:05.503Z,19.90
2018-10-19T09:34:05.476Z,22.90
2018-10-19T09:35:05.477Z,19.80
2018-10-19T09:36:05.584Z,20.90
2018-10-19T09:37:05.578Z,18.40
2018-10-19T09:38:05.434Z,22.00
2018-10-19T09:39:05.450Z,22.10
2018-10-19T09:40:05.429Z,23.00
2018-10-19T09:41:05.478Z,21.10
2018-10-19T09:42:05.479Z,21.40
2018-10-19T09:43:06.081Z,23.30
2018-10-19T09:44:05.368Z,20.10
2018-10-19T09:45:06.083Z,22.20
2018-10-19T09:46:05.346Z,21.70
2018-10-19T09:47:05.409Z,24.10
2018-10-19T09:48:05.327Z,24.10
2018-10-19T09:49:05.329Z,22.60
2018-10-19T09:50:05.305Z,23.30
2018-10-19T09:51:05.306Z,20.80
2018-10-19T09:52:05.368Z,22.60
2018-10-19T09:53:05.320Z,21.70
2018-10-19T09:54:05.266Z,22.00
2018-10-19T09:55:05.318Z,22.50
2018-10-19T09:56:05.247Z,21.70
2018-10-19T09:57:05.316Z,23.40
2018-10-19T09:58:05.222Z,23.00
2018-10-19T09:59:05.225Z,22.40
2018-10-19T10:00:05.200Z,22.80
2018-10-19T10:01:05.238Z,21.70
2018-10-19T10:02:05.316Z,21.20
2018-10-19T10:03:05.215Z,21.70
2018-10-19T10:04:06.067Z,21.30
2018-10-19T10:05:05.173Z,21.90
2018-10-19T10:06:05.136Z,22.70
2018-10-19T10:07:05.208Z,21.70
2018-10-19T10:08:05.130Z,20.90
2018-10-19T10:09:05.146Z,21.00
2018-10-19T10:10:05.097Z,21.60
2018-10-19T10:11:05.154Z,21.00
2018-10-19T10:12:05.078Z,19.70
2018-10-19T10:13:05.215Z,21.00
2018-10-19T10:14:05.054Z,21.10
2018-10-19T10:15:05.139Z,21.40
2018-10-19T10:16:05.034Z,20.40
2018-10-19T10:17:05.100Z,20.40
2018-10-19T10:18:05.087Z,19.60
2018-10-19T10:19:05.083Z,21.10
2018-10-19T10:20:04.989Z,20.40
2018-10-19T10:21:04.997Z,20.60
2018-10-19T10:22:05.599Z,21.10
2018-10-19T10:23:05.031Z,20.60
2018-10-19T10:24:04.950Z,22.60
2018-10-19T10:25:05.620Z,21.60
2018-10-19T10:26:04.935Z,24.00
2018-10-19T10:27:04.922Z,24.60
2018-10-19T10:28:04.997Z,23.00
2018-10-19T10:29:04.907Z,25.90
2018-10-19T10:30:04.892Z,22.60
2018-10-19T10:31:04.891Z,22.10
2018-10-19T10:32:04.905Z,22.40
2018-10-19T10:33:04.920Z,23.30
2018-10-19T10:34:04.940Z,25.80
2018-10-19T10:35:04.840Z,25.10
2018-10-19T10:36:04.828Z,24.60
2018-10-19T10:37:04.842Z,24.70
2018-10-19T10:38:04.875Z,26.20
2018-10-19T10:39:04.900Z,25.50
2018-10-19T10:40:04.844Z,20.70
2018-10-19T10:41:04.784Z,24.70
2018-10-19T10:42:04.773Z,26.50
2018-10-19T10:43:04.873Z,23.70
2018-10-19T10:44:04.753Z,24.20
2018-10-19T10:45:04.744Z,23.10
2018-10-19T10:46:06.621Z,24.00
2018-10-19T10:47:04.759Z,24.30
2018-10-19T10:48:04.778Z,25.40
2018-10-19T10:49:04.732Z,25.90
2018-10-19T10:50:04.695Z,23.30
2018-10-19T10:51:04.683Z,23.70
2018-10-19T10:52:04.689Z,22.50
2018-10-19T10:53:12.256Z,24.20
2018-10-19T10:54:04.647Z,24.70
2018-10-19T10:55:04.650Z,23.20
2018-10-19T10:57:15.538Z,22.50
2018-10-19T10:58:15.572Z,26.00
2018-10-19T10:59:15.447Z,27.60
2018-10-19T11:00:15.433Z,27.70
2018-10-19T11:01:15.496Z,27.00
2018-10-19T11:02:15.416Z,25.80
2018-10-19T11:03:15.464Z,27.00
2018-10-19T11:04:15.433Z,25.40
2018-10-19T11:05:15.385Z,26.50
2018-10-19T11:06:15.375Z,24.80
2018-10-19T11:07:15.394Z,28.30
2018-10-19T11:08:15.416Z,26.50
2018-10-19T11:09:15.342Z,28.70
2018-10-19T11:10:15.369Z,27.00
2018-10-19T11:11:15.324Z,29.00
2018-10-19T11:12:15.315Z,29.30
2018-10-19T11:13:15.375Z,29.60
2018-10-19T11:14:15.292Z,27.70
2018-10-19T11:15:15.287Z,27.70
2018-10-19T11:16:15.291Z,27.60
2018-10-19T11:17:15.262Z,27.40
2018-10-19T11:18:15.775Z,27.50
2018-10-19T11:19:15.329Z,29.30
2018-10-19T11:20:15.231Z,28.00
2018-10-19T11:21:15.226Z,27.60
2018-10-19T11:22:15.286Z,28.50
2018-10-19T11:23:15.277Z,29.30
2018-10-19T11:24:15.192Z,29.20
2018-10-19T11:25:15.233Z,26.90
2018-10-19T11:26:15.173Z,27.50
2018-10-19T11:27:15.164Z,26.60
2018-10-19T11:28:15.313Z,25.90
2018-10-19T11:29:15.208Z,27.70
2018-10-19T11:30:15.131Z,28.40
2018-10-19T11:31:15.213Z,26.60
2018-10-19T11:32:15.111Z,26.10
2018-10-19T11:33:15.106Z,28.70
2018-10-19T11:34:15.205Z,24.40
2018-10-19T11:35:15.084Z,26.80
2018-10-19T11:36:15.070Z,26.30
2018-10-19T11:37:15.116Z,27.00
2018-10-19T11:38:15.052Z,26.20
2018-10-19T11:39:15.264Z,28.70
2018-10-19T11:40:15.219Z,28.80
2018-10-19T11:41:15.020Z,24.90
2018-10-19T11:42:15.012Z,27.60
2018-10-19T11:43:15.029Z,26.30
2018-10-19T11:44:15.051Z,24.40
2018-10-19T11:45:14.981Z,26.00
2018-10-19T11:46:15.019Z,27.00
2018-10-19T11:47:14.958Z,27.50
2018-10-19T11:48:14.950Z,27.90
2018-10-19T11:49:15.131Z,29.40
2018-10-19T11:50:14.932Z,30.00
2018-10-19T11:51:14.920Z,30.10
2018-10-19T11:52:14.992Z,27.80
2018-10-19T11:53:14.901Z,28.10
2018-10-19T11:54:14.956Z,28.50
2018-10-19T11:55:14.932Z,28.60
2018-10-19T11:56:14.873Z,26.50
2018-10-19T11:57:14.924Z,25.30
2018-10-19T11:58:14.882Z,27.40
2018-10-19T11:59:14.924Z,26.50
2018-10-19T12:00:15.695Z,25.90
2018-10-19T12:01:14.918Z,26.10
2018-10-19T12:02:14.810Z,26.00
2018-10-19T12:03:14.802Z,26.30
2018-10-19T12:04:14.914Z,24.40
2018-10-19T12:05:14.792Z,25.70
2018-10-19T12:06:14.770Z,27.30
2018-10-19T12:07:14.834Z,26.40
2018-10-19T12:08:14.751Z,27.00
2018-10-19T12:09:14.808Z,24.20
2018-10-19T12:10:14.814Z,23.10
2018-10-19T12:11:14.722Z,24.10
2018-10-19T12:12:14.712Z,24.10
2018-10-19T12:13:14.740Z,23.10
2018-10-19T12:14:14.748Z,23.60
2018-10-19T12:15:14.774Z,24.90
2018-10-19T12:16:14.764Z,26.40
2018-10-19T12:17:14.658Z,27.10
2018-10-19T12:18:14.651Z,26.70
2018-10-19T12:19:14.803Z,23.50
2018-10-19T12:20:14.627Z,24.00
2018-10-19T12:21:15.232Z,23.90
2018-10-19T12:22:14.607Z,24.60
2018-10-19T12:23:14.607Z,25.70
2018-10-19T12:24:14.660Z,26.00
2018-10-19T12:25:14.640Z,25.30
2018-10-19T12:26:14.563Z,24.90
2018-10-19T12:27:14.612Z,24.00
2018-10-19T12:28:14.540Z,24.10
2018-10-19T12:29:14.529Z,25.40
2018-10-19T12:30:14.587Z,23.70
2018-10-19T12:31:14.563Z,23.60
2018-10-19T12:32:14.499Z,22.70
2018-10-19T12:33:14.565Z,25.20
2018-10-19T12:34:14.482Z,25.50
2018-10-19T12:35:14.533Z,25.20
2018-10-19T12:36:14.460Z,21.00
2018-10-19T12:37:14.562Z,22.60
2018-10-19T12:38:14.433Z,23.40
2018-10-19T12:39:14.515Z,20.30
2018-10-19T12:40:14.477Z,24.10
2018-10-19T12:41:14.442Z,23.00
2018-10-19T12:42:15.205Z,24.90
2018-10-19T12:43:14.390Z,23.00
2018-10-19T12:44:14.377Z,22.00
2018-10-19T12:45:14.436Z,23.70
2018-10-19T12:46:14.352Z,24.80
2018-10-19T12:47:14.404Z,25.20
2018-10-19T12:48:14.343Z,21.80
2018-10-19T12:49:14.400Z,21.70
2018-10-19T12:50:14.374Z,20.80
2018-10-19T12:51:14.368Z,20.90
2018-10-19T12:52:14.288Z,22.40
2018-10-19T12:53:14.277Z,21.40
2018-10-19T12:54:14.308Z,20.90
2018-10-19T12:55:14.351Z,22.60